sensor_id;sensor_type;location;lat;lon;timestamp;pressure;altitude;pressure_sealevel;temperature;humidity
7333;BME280;3707;43.618;25.342;2023-04-25T00:00:02;99334.66;;;15.38;100.00
7333;BME280;3707;43.618;25.342;2023-04-25T00:02:32;99351.66;;;15.64;100.00
7333;BME280;3707;43.618;25.342;2023-04-25T00:05:00;99336.16;;;15.55;100.00
7333;BME280;3707;43.618;25.342;2023-04-25T00:07:27;99339.59;;;15.57;100.00
7333;BME280;3707;43.618;25.342;2023-04-25T00:09:53;99332.63;;;15.57;100.00
7333;BME280;3707;43.618;25.342;2023-04-25T00:12:20;99336.09;;;15.58;100.00
7333;BME280;3707;43.618;25.342;2023-04-25T00:14:49;99323.88;;;15.60;100.00
7333;BME280;3707;43.618;25.342;2023-04-25T00:17:16;99326.47;;;15.60;100.00
7333;BME280;3707;43.618;25.342;2023-04-25T00:19:44;99315.09;;;15.64;100.00
7333;BME280;3707;43.618;25.342;2023-04-25T00:22:11;99313.47;;;15.58;100.00
7333;BME280;3707;43.618;25.342;2023-04-25T00:24:38;99298.06;;;15.38;100.00
7333;BME280;3707;43.618;25.342;2023-04-25T00:27:05;99285.25;;;15.23;100.00
7333;BME280;3707;43.618;25.342;2023-04-25T00:29:32;99307.72;;;15.35;100.00
7333;BME280;3707;43.618;25.342;2023-04-25T00:32:01;99291.28;;;15.27;100.00
7333;BME280;3707;43.618;25.342;2023-04-25T00:34:28;99299.88;;;15.36;100.00
7333;BME280;3707;43.618;25.342;2023-04-25T00:36:55;99293.72;;;15.41;100.00
7333;BME280;3707;43.618;25.342;2023-04-25T00:39:22;99294.69;;;15.33;100.00
7333;BME280;3707;43.618;25.342;2023-04-25T00:41:50;99278.28;;;15.25;100.00
7333;BME280;3707;43.618;25.342;2023-04-25T00:44:18;99197.59;;;14.58;100.00
7333;BME280;3707;43.618;25.342;2023-04-25T00:46:47;99254.50;;;14.88;100.00
7333;BME280;3707;43.618;25.342;2023-04-25T00:49:15;99272.44;;;15.11;100.00
7333;BME280;3707;43.618;25.342;2023-04-25T00:51:42;99281.13;;;15.10;100.00
7333;BME280;3707;43.618;25.342;2023-04-25T00:54:12;99271.66;;;15.05;100.00
7333;BME280;3707;43.618;25.342;2023-04-25T00:56:39;99268.13;;;15.09;100.00
7333;BME280;3707;43.618;25.342;2023-04-25T00:59:06;99257.69;;;15.07;100.00
7333;BME280;3707;43.618;25.342;2023-04-25T01:01:33;99257.06;;;14.92;100.00
7333;BME280;3707;43.618;25.342;2023-04-25T01:04:00;99242.25;;;14.94;100.00
7333;BME280;3707;43.618;25.342;2023-04-25T01:06:29;99250.97;;;14.93;100.00
7333;BME280;3707;43.618;25.342;2023-04-25T01:08:56;99231.88;;;14.91;100.00
7333;BME280;3707;43.618;25.342;2023-04-25T01:11:23;99238.91;;;14.87;100.00
7333;BME280;3707;43.618;25.342;2023-04-25T01:13:50;99239.78;;;14.84;100.00
7333;BME280;3707;43.618;25.342;2023-04-25T01:16:17;99233.56;;;14.93;100.00
7333;BME280;3707;43.618;25.342;2023-04-25T01:18:44;99237.75;;;15.03;100.00
7333;BME280;3707;43.618;25.342;2023-04-25T01:21:13;99217.91;;;14.95;100.00
7333;BME280;3707;43.618;25.342;2023-04-25T01:23:40;99234.94;;;15.14;100.00
7333;BME280;3707;43.618;25.342;2023-04-25T01:26:09;99216.81;;;15.06;100.00
7333;BME280;3707;43.618;25.342;2023-04-25T01:28:36;99224.44;;;15.17;100.00
7333;BME280;3707;43.618;25.342;2023-04-25T01:31:04;99196.03;;;15.02;100.00
7333;BME280;3707;43.618;25.342;2023-04-25T01:33:32;99222.00;;;15.08;100.00
7333;BME280;3707;43.618;25.342;2023-04-25T01:35:59;99210.03;;;14.96;100.00
7333;BME280;3707;43.618;25.342;2023-04-25T01:38:27;99215.75;;;15.16;100.00
7333;BME280;3707;43.618;25.342;2023-04-25T01:40:54;99213.31;;;15.06;100.00
7333;BME280;3707;43.618;25.342;2023-04-25T01:43:21;99210.78;;;15.03;100.00
7333;BME280;3707;43.618;25.342;2023-04-25T01:45:49;99198.47;;;15.09;100.00
7333;BME280;3707;43.618;25.342;2023-04-25T01:48:16;99209.72;;;15.14;100.00
7333;BME280;3707;43.618;25.342;2023-04-25T01:50:43;99191.53;;;15.08;100.00
7333;BME280;3707;43.618;25.342;2023-04-25T01:53:13;99195.59;;;15.24;100.00
7333;BME280;3707;43.618;25.342;2023-04-25T01:55:41;99193.88;;;15.23;100.00
7333;BME280;3707;43.618;25.342;2023-04-25T01:58:08;99195.06;;;15.06;100.00
7333;BME280;3707;43.618;25.342;2023-04-25T02:00:38;99180.31;;;15.03;100.00
7333;BME280;3707;43.618;25.342;2023-04-25T02:03:06;99189.69;;;15.15;100.00
7333;BME280;3707;43.618;25.342;2023-04-25T02:05:37;99184.47;;;15.15;100.00
7333;BME280;3707;43.618;25.342;2023-04-25T02:08:05;99178.38;;;15.14;100.00
7333;BME280;3707;43.618;25.342;2023-04-25T02:10:32;99175.75;;;15.14;100.00
7333;BME280;3707;43.618;25.342;2023-04-25T02:13:01;99169.47;;;15.24;100.00
7333;BME280;3707;43.618;25.342;2023-04-25T02:15:29;99159.22;;;15.15;100.00
7333;BME280;3707;43.618;25.342;2023-04-25T02:17:55;99165.31;;;15.16;100.00
7333;BME280;3707;43.618;25.342;2023-04-25T02:20:24;99165.06;;;15.28;100.00
7333;BME280;3707;43.618;25.342;2023-04-25T02:22:51;99169.41;;;15.29;100.00
7333;BME280;3707;43.618;25.342;2023-04-25T02:25:19;99161.53;;;15.30;100.00
7333;BME280;3707;43.618;25.342;2023-04-25T02:27:46;99084.19;;;14.79;100.00
7333;BME280;3707;43.618;25.342;2023-04-25T02:30:14;99152.88;;;15.28;100.00
7333;BME280;3707;43.618;25.342;2023-04-25T02:32:41;99154.09;;;15.09;100.00
7333;BME280;3707;43.618;25.342;2023-04-25T02:35:08;99123.88;;;14.98;100.00
7333;BME280;3707;43.618;25.342;2023-04-25T02:37:36;99151.06;;;15.30;100.00
7333;BME280;3707;43.618;25.342;2023-04-25T02:40:05;99151.78;;;15.38;100.00
7333;BME280;3707;43.618;25.342;2023-04-25T02:42:32;99150.31;;;15.25;100.00
7333;BME280;3707;43.618;25.342;2023-04-25T02:44:59;99164.09;;;15.33;100.00
7333;BME280;3707;43.618;25.342;2023-04-25T02:47:27;99176.19;;;15.37;100.00
7333;BME280;3707;43.618;25.342;2023-04-25T02:49:54;99187.31;;;15.50;100.00
7333;BME280;3707;43.618;25.342;2023-04-25T02:52:21;99179.41;;;15.55;100.00
7333;BME280;3707;43.618;25.342;2023-04-25T02:54:48;99189.50;;;15.73;100.00
7333;BME280;3707;43.618;25.342;2023-04-25T02:57:14;99196.53;;;15.68;100.00
7333;BME280;3707;43.618;25.342;2023-04-25T02:59:41;99184.38;;;15.67;100.00
7333;BME280;3707;43.618;25.342;2023-04-25T03:02:08;99198.22;;;15.72;100.00
7333;BME280;3707;43.618;25.342;2023-04-25T03:04:36;99191.13;;;15.77;100.00
7333;BME280;3707;43.618;25.342;2023-04-25T03:07:04;99196.41;;;15.74;100.00
7333;BME280;3707;43.618;25.342;2023-04-25T03:09:31;99191.97;;;15.79;100.00
7333;BME280;3707;43.618;25.342;2023-04-25T03:11:57;99191.81;;;15.86;100.00
7333;BME280;3707;43.618;25.342;2023-04-25T03:14:24;99200.47;;;15.90;100.00
7333;BME280;3707;43.618;25.342;2023-04-25T03:16:51;99200.56;;;15.84;100.00
7333;BME280;3707;43.618;25.342;2023-04-25T03:19:18;99194.59;;;15.79;100.00
7333;BME280;3707;43.618;25.342;2023-04-25T03:21:47;99173.59;;;15.82;100.00
7333;BME280;3707;43.618;25.342;2023-04-25T03:24:14;99179.69;;;15.82;100.00
7333;BME280;3707;43.618;25.342;2023-04-25T03:26:41;99187.47;;;15.85;100.00
7333;BME280;3707;43.618;25.342;2023-04-25T03:29:08;99193.78;;;15.75;100.00
7333;BME280;3707;43.618;25.342;2023-04-25T03:31:35;99199.97;;;15.70;100.00
7333;BME280;3707;43.618;25.342;2023-04-25T03:34:02;99206.28;;;15.60;100.00
7333;BME280;3707;43.618;25.342;2023-04-25T03:36:28;99185.75;;;15.40;100.00
7333;BME280;3707;43.618;25.342;2023-04-25T03:38:57;99218.22;;;15.73;100.00
7333;BME280;3707;43.618;25.342;2023-04-25T03:41:24;99206.56;;;15.43;100.00
7333;BME280;3707;43.618;25.342;2023-04-25T03:43:50;99199.53;;;15.47;100.00
7333;BME280;3707;43.618;25.342;2023-04-25T03:46:17;99211.41;;;15.66;100.00
7333;BME280;3707;43.618;25.342;2023-04-25T03:48:44;99219.00;;;15.78;100.00
7333;BME280;3707;43.618;25.342;2023-04-25T03:51:11;99213.59;;;15.87;100.00
7333;BME280;3707;43.618;25.342;2023-04-25T03:53:37;99202.88;;;15.99;100.00
7333;BME280;3707;43.618;25.342;2023-04-25T03:56:06;99213.78;;;16.19;100.00
7333;BME280;3707;43.618;25.342;2023-04-25T03:58:33;99210.75;;;15.98;100.00
7333;BME280;3707;43.618;25.342;2023-04-25T04:01:00;99213.31;;;15.99;100.00
7333;BME280;3707;43.618;25.342;2023-04-25T04:03:28;99219.41;;;16.00;100.00
7333;BME280;3707;43.618;25.342;2023-04-25T04:05:55;99205.47;;;15.58;100.00
7333;BME280;3707;43.618;25.342;2023-04-25T04:08:21;99201.09;;;15.58;100.00
7333;BME280;3707;43.618;25.342;2023-04-25T04:10:48;99193.44;;;15.46;100.00
7333;BME280;3707;43.618;25.342;2023-04-25T04:13:16;99198.44;;;15.60;100.00
7333;BME280;3707;43.618;25.342;2023-04-25T04:15:43;99202.16;;;15.47;100.00
7333;BME280;3707;43.618;25.342;2023-04-25T04:18:10;99189.97;;;15.46;100.00
7333;BME280;3707;43.618;25.342;2023-04-25T04:20:37;99213.81;;;15.75;100.00
7333;BME280;3707;43.618;25.342;2023-04-25T04:23:03;99213.69;;;15.82;100.00
7333;BME280;3707;43.618;25.342;2023-04-25T04:25:30;99186.97;;;15.68;100.00
7333;BME280;3707;43.618;25.342;2023-04-25T04:27:57;99206.78;;;15.80;100.00
7333;BME280;3707;43.618;25.342;2023-04-25T04:30:26;99212.22;;;16.11;100.00
7333;BME280;3707;43.618;25.342;2023-04-25T04:32:55;99204.69;;;16.35;100.00
7333;BME280;3707;43.618;25.342;2023-04-25T04:35:22;99195.41;;;16.22;100.00
7333;BME280;3707;43.618;25.342;2023-04-25T04:37:48;99223.66;;;16.45;100.00
7333;BME280;3707;43.618;25.342;2023-04-25T04:40:16;99223.44;;;16.56;100.00
7333;BME280;3707;43.618;25.342;2023-04-25T04:42:44;99219.25;;;16.47;100.00
7333;BME280;3707;43.618;25.342;2023-04-25T04:45:11;99218.78;;;16.30;100.00
7333;BME280;3707;43.618;25.342;2023-04-25T04:47:40;99214.75;;;16.15;100.00
7333;BME280;3707;43.618;25.342;2023-04-25T04:50:07;99220.88;;;16.13;100.00
7333;BME280;3707;43.618;25.342;2023-04-25T04:52:35;99225.84;;;16.25;100.00
7333;BME280;3707;43.618;25.342;2023-04-25T04:55:02;99203.13;;;16.67;100.00
7333;BME280;3707;43.618;25.342;2023-04-25T04:57:29;99170.31;;;16.14;100.00
7333;BME280;3707;43.618;25.342;2023-04-25T04:59:56;99223.16;;;16.29;100.00
7333;BME280;3707;43.618;25.342;2023-04-25T05:02:23;99225.78;;;16.28;100.00
7333;BME280;3707;43.618;25.342;2023-04-25T05:04:51;99210.78;;;16.36;100.00
7333;BME280;3707;43.618;25.342;2023-04-25T05:07:18;99201.25;;;16.33;100.00
7333;BME280;3707;43.618;25.342;2023-04-25T05:09:45;99189.63;;;16.47;100.00
7333;BME280;3707;43.618;25.342;2023-04-25T05:12:12;99209.25;;;16.66;100.00
7333;BME280;3707;43.618;25.342;2023-04-25T05:14:39;99216.13;;;16.70;100.00
7333;BME280;3707;43.618;25.342;2023-04-25T05:17:05;99219.06;;;16.56;100.00
7333;BME280;3707;43.618;25.342;2023-04-25T05:19:34;99157.38;;;16.08;100.00
7333;BME280;3707;43.618;25.342;2023-04-25T05:22:02;99216.03;;;16.34;100.00
7333;BME280;3707;43.618;25.342;2023-04-25T05:24:29;99214.19;;;16.40;100.00
7333;BME280;3707;43.618;25.342;2023-04-25T05:26:56;99219.84;;;16.60;100.00
7333;BME280;3707;43.618;25.342;2023-04-25T05:29:23;99193.19;;;16.43;100.00
7333;BME280;3707;43.618;25.342;2023-04-25T05:31:49;99216.84;;;16.38;100.00
7333;BME280;3707;43.618;25.342;2023-04-25T05:34:16;99216.38;;;16.59;100.00
7333;BME280;3707;43.618;25.342;2023-04-25T05:36:43;99214.13;;;16.43;100.00
7333;BME280;3707;43.618;25.342;2023-04-25T05:39:11;99199.88;;;16.57;100.00
7333;BME280;3707;43.618;25.342;2023-04-25T05:41:38;99208.50;;;16.61;100.00
7333;BME280;3707;43.618;25.342;2023-04-25T05:44:05;99217.19;;;16.98;100.00
7333;BME280;3707;43.618;25.342;2023-04-25T05:46:32;99222.72;;;17.21;100.00
7333;BME280;3707;43.618;25.342;2023-04-25T05:48:59;99218.78;;;17.38;100.00
7333;BME280;3707;43.618;25.342;2023-04-25T05:51:26;99211.66;;;17.09;100.00
7333;BME280;3707;43.618;25.342;2023-04-25T05:53:52;99217.47;;;17.21;100.00
7333;BME280;3707;43.618;25.342;2023-04-25T05:56:21;99214.28;;;17.10;100.00
7333;BME280;3707;43.618;25.342;2023-04-25T05:58:47;99199.09;;;16.89;100.00
7333;BME280;3707;43.618;25.342;2023-04-25T06:01:14;99213.91;;;16.90;100.00
7333;BME280;3707;43.618;25.342;2023-04-25T06:03:41;99216.38;;;16.96;100.00
7333;BME280;3707;43.618;25.342;2023-04-25T06:06:08;99188.81;;;16.81;100.00
7333;BME280;3707;43.618;25.342;2023-04-25T06:08:35;99221.97;;;17.16;100.00
7333;BME280;3707;43.618;25.342;2023-04-25T06:11:03;99205.47;;;17.45;100.00
7333;BME280;3707;43.618;25.342;2023-04-25T06:13:31;99194.75;;;18.16;100.00
7333;BME280;3707;43.618;25.342;2023-04-25T06:15:58;99235.25;;;18.37;100.00
7333;BME280;3707;43.618;25.342;2023-04-25T06:18:24;99208.13;;;18.08;100.00
7333;BME280;3707;43.618;25.342;2023-04-25T06:20:51;99224.44;;;18.18;100.00
7333;BME280;3707;43.618;25.342;2023-04-25T06:23:18;99220.03;;;18.48;100.00
7333;BME280;3707;43.618;25.342;2023-04-25T06:25:45;99218.81;;;18.59;100.00
7333;BME280;3707;43.618;25.342;2023-04-25T06:28:11;99221.53;;;18.56;100.00
7333;BME280;3707;43.618;25.342;2023-04-25T06:30:39;99224.03;;;18.61;100.00
7333;BME280;3707;43.618;25.342;2023-04-25T06:33:06;99208.56;;;18.79;100.00
7333;BME280;3707;43.618;25.342;2023-04-25T06:35:33;99219.69;;;19.12;100.00
7333;BME280;3707;43.618;25.342;2023-04-25T06:38:00;99227.81;;;19.06;100.00
7333;BME280;3707;43.618;25.342;2023-04-25T06:40:27;99225.69;;;19.17;100.00
7333;BME280;3707;43.618;25.342;2023-04-25T06:42:54;99233.16;;;18.48;100.00
7333;BME280;3707;43.618;25.342;2023-04-25T06:45:20;99222.09;;;18.66;100.00
7333;BME280;3707;43.618;25.342;2023-04-25T06:47:49;99215.84;;;18.98;100.00
7333;BME280;3707;43.618;25.342;2023-04-25T06:50:15;99221.50;;;19.12;100.00
7333;BME280;3707;43.618;25.342;2023-04-25T06:52:43;99224.84;;;19.43;100.00
7333;BME280;3707;43.618;25.342;2023-04-25T06:55:10;99213.44;;;19.67;100.00
7333;BME280;3707;43.618;25.342;2023-04-25T06:57:37;99214.94;;;19.74;100.00
7333;BME280;3707;43.618;25.342;2023-04-25T07:00:05;99242.69;;;19.83;100.00
7333;BME280;3707;43.618;25.342;2023-04-25T07:02:34;99248.31;;;19.97;100.00
7333;BME280;3707;43.618;25.342;2023-04-25T07:05:03;99242.63;;;20.33;100.00
7333;BME280;3707;43.618;25.342;2023-04-25T07:07:31;99247.06;;;20.07;100.00
7333;BME280;3707;43.618;25.342;2023-04-25T07:09:57;99243.88;;;20.46;100.00
7333;BME280;3707;43.618;25.342;2023-04-25T07:12:24;99248.44;;;20.17;100.00
7333;BME280;3707;43.618;25.342;2023-04-25T07:14:51;99231.19;;;20.09;100.00
7333;BME280;3707;43.618;25.342;2023-04-25T07:17:18;99255.81;;;20.33;100.00
7333;BME280;3707;43.618;25.342;2023-04-25T07:19:44;99240.38;;;20.45;100.00
7333;BME280;3707;43.618;25.342;2023-04-25T07:22:13;99250.53;;;20.99;100.00
7333;BME280;3707;43.618;25.342;2023-04-25T07:24:39;99261.31;;;20.48;100.00
7333;BME280;3707;43.618;25.342;2023-04-25T07:27:06;99245.66;;;20.45;100.00
7333;BME280;3707;43.618;25.342;2023-04-25T07:29:33;99259.38;;;20.53;100.00
7333;BME280;3707;43.618;25.342;2023-04-25T07:32:02;99237.78;;;20.67;100.00
7333;BME280;3707;43.618;25.342;2023-04-25T07:34:29;99261.97;;;20.98;98.79
7333;BME280;3707;43.618;25.342;2023-04-25T07:36:57;99255.41;;;21.30;97.24
7333;BME280;3707;43.618;25.342;2023-04-25T07:39:26;99251.00;;;21.31;96.71
7333;BME280;3707;43.618;25.342;2023-04-25T07:41:52;99256.91;;;20.94;99.92
7333;BME280;3707;43.618;25.342;2023-04-25T07:44:20;99273.19;;;20.60;100.00
7333;BME280;3707;43.618;25.342;2023-04-25T07:46:47;99260.47;;;20.48;100.00
7333;BME280;3707;43.618;25.342;2023-04-25T07:49:13;99240.56;;;20.41;100.00
7333;BME280;3707;43.618;25.342;2023-04-25T07:51:40;99264.41;;;20.59;100.00
7333;BME280;3707;43.618;25.342;2023-04-25T07:54:08;99263.53;;;20.82;100.00
7333;BME280;3707;43.618;25.342;2023-04-25T07:56:36;99252.97;;;21.04;99.07
7333;BME280;3707;43.618;25.342;2023-04-25T07:59:03;99257.25;;;21.06;95.91
7333;BME280;3707;43.618;25.342;2023-04-25T08:01:30;99232.63;;;20.64;96.50
7333;BME280;3707;43.618;25.342;2023-04-25T08:03:57;99249.19;;;20.44;97.23
7333;BME280;3707;43.618;25.342;2023-04-25T08:06:24;99247.66;;;20.15;100.00
7333;BME280;3707;43.618;25.342;2023-04-25T08:08:50;99216.34;;;20.08;99.61
7333;BME280;3707;43.618;25.342;2023-04-25T08:11:17;99239.41;;;20.24;98.65
7333;BME280;3707;43.618;25.342;2023-04-25T08:13:45;99246.72;;;20.16;99.19
7333;BME280;3707;43.618;25.342;2023-04-25T08:16:12;99248.41;;;20.42;91.65
7333;BME280;3707;43.618;25.342;2023-04-25T08:18:39;99231.81;;;20.40;92.04
7333;BME280;3707;43.618;25.342;2023-04-25T08:21:06;99243.03;;;20.67;92.91
7333;BME280;3707;43.618;25.342;2023-04-25T08:23:34;99254.81;;;20.80;91.85
7333;BME280;3707;43.618;25.342;2023-04-25T08:26:01;99263.78;;;20.53;91.20
7333;BME280;3707;43.618;25.342;2023-04-25T08:28:28;99252.88;;;20.40;92.11
7333;BME280;3707;43.618;25.342;2023-04-25T08:30:56;99263.84;;;20.51;90.99
7333;BME280;3707;43.618;25.342;2023-04-25T08:33:23;99263.09;;;20.48;90.60
7333;BME280;3707;43.618;25.342;2023-04-25T08:35:50;99261.25;;;20.26;92.94
7333;BME280;3707;43.618;25.342;2023-04-25T08:38:17;99255.19;;;20.48;94.23
7333;BME280;3707;43.618;25.342;2023-04-25T08:40:49;99249.31;;;20.18;89.83
7333;BME280;3707;43.618;25.342;2023-04-25T08:43:18;99251.97;;;20.16;87.71
7333;BME280;3707;43.618;25.342;2023-04-25T08:45:45;99254.88;;;20.34;87.25
7333;BME280;3707;43.618;25.342;2023-04-25T08:48:15;99252.78;;;20.18;86.39
7333;BME280;3707;43.618;25.342;2023-04-25T08:50:47;99246.31;;;20.28;86.13
7333;BME280;3707;43.618;25.342;2023-04-25T08:53:16;99251.47;;;20.07;84.97
7333;BME280;3707;43.618;25.342;2023-04-25T08:55:46;99253.19;;;20.08;85.05
7333;BME280;3707;43.618;25.342;2023-04-25T08:58:13;99256.97;;;20.01;84.22
7333;BME280;3707;43.618;25.342;2023-04-25T09:00:40;99249.34;;;19.93;82.36
7333;BME280;3707;43.618;25.342;2023-04-25T09:03:07;99263.63;;;20.57;82.77
7333;BME280;3707;43.618;25.342;2023-04-25T09:05:35;99230.72;;;20.46;79.51
7333;BME280;3707;43.618;25.342;2023-04-25T09:08:02;99260.47;;;20.48;78.46
7333;BME280;3707;43.618;25.342;2023-04-25T09:10:28;99258.47;;;20.54;77.07
7333;BME280;3707;43.618;25.342;2023-04-25T09:13:03;99249.78;;;20.74;78.44
7333;BME280;3707;43.618;25.342;2023-04-25T09:15:31;99259.31;;;20.55;81.30
7333;BME280;3707;43.618;25.342;2023-04-25T09:17:59;99254.88;;;20.34;84.08
7333;BME280;3707;43.618;25.342;2023-04-25T09:20:26;99251.84;;;20.19;87.36
7333;BME280;3707;43.618;25.342;2023-04-25T09:23:03;99190.53;;;20.17;89.25
7333;BME280;3707;43.618;25.342;2023-04-25T09:25:34;99254.75;;;20.82;87.26
7333;BME280;3707;43.618;25.342;2023-04-25T09:28:04;99246.56;;;20.89;82.90
7333;BME280;3707;43.618;25.342;2023-04-25T09:30:33;99246.03;;;21.01;85.93
7333;BME280;3707;43.618;25.342;2023-04-25T09:33:04;99234.25;;;21.11;85.44
7333;BME280;3707;43.618;25.342;2023-04-25T09:35:35;99236.75;;;21.14;86.35
7333;BME280;3707;43.618;25.342;2023-04-25T09:38:08;99247.81;;;21.22;86.83
7333;BME280;3707;43.618;25.342;2023-04-25T09:40:39;99221.34;;;21.04;92.32
7333;BME280;3707;43.618;25.342;2023-04-25T09:43:09;99230.34;;;20.98;94.61
7333;BME280;3707;43.618;25.342;2023-04-25T09:45:41;99249.06;;;20.92;97.77
7333;BME280;3707;43.618;25.342;2023-04-25T09:48:11;99208.00;;;20.87;99.44
7333;BME280;3707;43.618;25.342;2023-04-25T09:50:38;99219.56;;;21.04;100.00
7333;BME280;3707;43.618;25.342;2023-04-25T09:53:06;99248.13;;;21.37;100.00
7333;BME280;3707;43.618;25.342;2023-04-25T09:55:34;99235.03;;;21.34;100.00
7333;BME280;3707;43.618;25.342;2023-04-25T09:58:04;99241.28;;;21.53;100.00
7333;BME280;3707;43.618;25.342;2023-04-25T10:00:32;99232.41;;;21.34;100.00
7333;BME280;3707;43.618;25.342;2023-04-25T10:03:01;99231.72;;;21.50;100.00
7333;BME280;3707;43.618;25.342;2023-04-25T10:05:30;99225.44;;;21.53;100.00
7333;BME280;3707;43.618;25.342;2023-04-25T10:07:59;99224.25;;;21.40;100.00
7333;BME280;3707;43.618;25.342;2023-04-25T10:10:29;99227.16;;;21.12;100.00
7333;BME280;3707;43.618;25.342;2023-04-25T10:13:03;99222.69;;;20.92;100.00
7333;BME280;3707;43.618;25.342;2023-04-25T10:15:33;99227.09;;;20.25;100.00
7333;BME280;3707;43.618;25.342;2023-04-25T10:18:00;99236.25;;;19.67;100.00
7333;BME280;3707;43.618;25.342;2023-04-25T10:20:28;99231.25;;;19.59;100.00
7333;BME280;3707;43.618;25.342;2023-04-25T10:22:58;99214.19;;;19.71;100.00
7333;BME280;3707;43.618;25.342;2023-04-25T10:25:30;99219.47;;;19.71;100.00
7333;BME280;3707;43.618;25.342;2023-04-25T10:27:59;99220.69;;;19.61;100.00
7333;BME280;3707;43.618;25.342;2023-04-25T10:30:27;99225.44;;;19.76;100.00
7333;BME280;3707;43.618;25.342;2023-04-25T10:32:55;99229.81;;;19.75;100.00
7333;BME280;3707;43.618;25.342;2023-04-25T10:35:26;99189.44;;;19.76;100.00
7333;BME280;3707;43.618;25.342;2023-04-25T10:38:00;99226.84;;;20.33;100.00
7333;BME280;3707;43.618;25.342;2023-04-25T10:40:29;99240.22;;;20.50;96.33
7333;BME280;3707;43.618;25.342;2023-04-25T10:46:16;99223.03;;;22.07;89.18
7333;BME280;3707;43.618;25.342;2023-04-25T10:48:47;99228.03;;;22.88;81.17
7333;BME280;3707;43.618;25.342;2023-04-25T10:51:20;99214.81;;;23.05;68.15
7333;BME280;3707;43.618;25.342;2023-04-25T10:53:47;99235.94;;;23.24;63.73
7333;BME280;3707;43.618;25.342;2023-04-25T10:56:25;99203.50;;;23.55;64.21
7333;BME280;3707;43.618;25.342;2023-04-25T10:58:52;99229.50;;;23.64;69.10
7333;BME280;3707;43.618;25.342;2023-04-25T11:01:36;99201.75;;;23.19;75.24
7333;BME280;3707;43.618;25.342;2023-04-25T11:04:03;99227.44;;;23.00;67.38
7333;BME280;3707;43.618;25.342;2023-04-25T11:06:37;99214.00;;;23.39;62.53
7333;BME280;3707;43.618;25.342;2023-04-25T11:09:11;99217.78;;;23.34;65.90
7333;BME280;3707;43.618;25.342;2023-04-25T11:11:39;99213.19;;;23.37;63.02
7333;BME280;3707;43.618;25.342;2023-04-25T11:14:06;99201.13;;;23.50;73.97
7333;BME280;3707;43.618;25.342;2023-04-25T11:16:34;99203.16;;;23.27;70.83
7333;BME280;3707;43.618;25.342;2023-04-25T11:19:01;99216.69;;;23.03;72.29
7333;BME280;3707;43.618;25.342;2023-04-25T11:21:29;99205.50;;;23.15;73.96
7333;BME280;3707;43.618;25.342;2023-04-25T11:23:57;99205.38;;;23.18;78.54
7333;BME280;3707;43.618;25.342;2023-04-25T11:26:24;99201.13;;;23.50;77.56
7333;BME280;3707;43.618;25.342;2023-04-25T11:28:51;99207.84;;;23.04;70.59
7333;BME280;3707;43.618;25.342;2023-04-25T11:31:20;99205.00;;;22.90;74.09
7333;BME280;3707;43.618;25.342;2023-04-25T11:33:49;99205.25;;;23.03;77.76
7333;BME280;3707;43.618;25.342;2023-04-25T11:36:16;99204.03;;;22.74;83.13
7333;BME280;3707;43.618;25.342;2023-04-25T11:38:43;99198.69;;;23.11;84.21
7333;BME280;3707;43.618;25.342;2023-04-25T11:41:10;99196.19;;;23.26;80.45
7333;BME280;3707;43.618;25.342;2023-04-25T11:43:37;99194.78;;;22.47;81.41
7333;BME280;3707;43.618;25.342;2023-04-25T11:46:06;99184.44;;;21.85;92.01
7333;BME280;3707;43.618;25.342;2023-04-25T11:48:37;99180.22;;;22.01;95.75
7333;BME280;3707;43.618;25.342;2023-04-25T11:51:05;99175.09;;;21.77;98.07
7333;BME280;3707;43.618;25.342;2023-04-25T11:53:32;99171.72;;;22.32;93.43
7333;BME280;3707;43.618;25.342;2023-04-25T11:55:59;99170.22;;;21.87;97.12
7333;BME280;3707;43.618;25.342;2023-04-25T11:58:26;99149.38;;;22.01;90.79
7333;BME280;3707;43.618;25.342;2023-04-25T12:00:53;99158.56;;;22.49;85.64
7333;BME280;3707;43.618;25.342;2023-04-25T12:03:23;99165.81;;;23.15;78.83
7333;BME280;3707;43.618;25.342;2023-04-25T12:05:52;99158.72;;;22.46;77.77
7333;BME280;3707;43.618;25.342;2023-04-25T12:08:21;99139.53;;;22.78;74.45
7333;BME280;3707;43.618;25.342;2023-04-25T12:10:47;99151.84;;;22.60;73.87
7333;BME280;3707;43.618;25.342;2023-04-25T12:13:19;99147.69;;;22.91;68.59
7333;BME280;3707;43.618;25.342;2023-04-25T12:15:46;99129.97;;;22.40;68.39
7333;BME280;3707;43.618;25.342;2023-04-25T12:18:14;99137.38;;;22.32;67.19
7333;BME280;3707;43.618;25.342;2023-04-25T12:20:41;99140.38;;;22.24;68.36
7333;BME280;3707;43.618;25.342;2023-04-25T12:23:08;99143.19;;;22.21;68.99
7333;BME280;3707;43.618;25.342;2023-04-25T12:25:39;99128.47;;;22.51;69.03
7333;BME280;3707;43.618;25.342;2023-04-25T12:28:14;99131.44;;;22.81;73.59
7333;BME280;3707;43.618;25.342;2023-04-25T12:30:54;99140.00;;;23.20;69.33
7333;BME280;3707;43.618;25.342;2023-04-25T12:33:21;99142.66;;;23.03;65.16
7333;BME280;3707;43.618;25.342;2023-04-25T12:35:48;99135.63;;;23.37;63.81
7333;BME280;3707;43.618;25.342;2023-04-25T12:38:21;99146.59;;;23.96;62.96
7333;BME280;3707;43.618;25.342;2023-04-25T12:40:49;99139.72;;;23.92;61.82
7333;BME280;3707;43.618;25.342;2023-04-25T12:43:16;99134.66;;;24.21;57.61
7333;BME280;3707;43.618;25.342;2023-04-25T12:45:43;99108.97;;;23.74;60.71
7333;BME280;3707;43.618;25.342;2023-04-25T12:48:10;99121.03;;;23.95;57.75
7333;BME280;3707;43.618;25.342;2023-04-25T12:50:36;99105.88;;;23.66;58.58
7333;BME280;3707;43.618;25.342;2023-04-25T12:53:03;99122.59;;;23.66;60.10
7333;BME280;3707;43.618;25.342;2023-04-25T12:55:30;99111.53;;;23.26;56.13
7333;BME280;3707;43.618;25.342;2023-04-25T12:57:58;99124.22;;;23.02;60.07
7333;BME280;3707;43.618;25.342;2023-04-25T13:00:25;99119.47;;;22.74;59.46
7333;BME280;3707;43.618;25.342;2023-04-25T13:02:52;99116.34;;;22.83;57.21
7333;BME280;3707;43.618;25.342;2023-04-25T13:05:19;99107.78;;;22.61;57.64
7333;BME280;3707;43.618;25.342;2023-04-25T13:07:46;99109.53;;;22.43;59.49
7333;BME280;3707;43.618;25.342;2023-04-25T13:10:13;99115.16;;;22.18;58.33